Wardner, Idaho
Current Conditions -  °F | °C
As of 4:53 PM on Monday 26 Jan 2015 (Local Time) from KMLP Reporting Station
Clear Clear  
Wind Chill: 40°   Ceiling: Unl
Heat Index: 46°   Visibility: 10mi
Dew Point: 26°   Wind: 13mph
Humidity: 46%   Direction: 250°WSW
Pressure: 30.08"   Gusts: 20mph
Location:  47.7187°N, 116.087°W
Report Text: KMLP 270053Z AUTO 25011G17KT 10SM CLR 08/M03 A3008 RMK AO2 SLP131 T00781033
Loading
Personal Weather Stations






























Interactive Weather Map New forecast layout! Learn more

10-Day Weather Forecast

Advertisements
Track Severe Weather on mobile